createdAt,value
2022-12-18T00:01:00.651Z,3.90
2022-12-18T00:05:04.698Z,3.83
2022-12-18T00:07:06.583Z,4.18
2022-12-18T00:09:08.486Z,3.70
2022-12-18T00:11:20.813Z,4.40
2022-12-18T00:13:22.777Z,4.38
2022-12-18T00:15:24.610Z,4.28
2022-12-18T00:17:26.471Z,4.57
2022-12-18T00:19:28.510Z,4.05
2022-12-18T00:23:36.237Z,4.18
2022-12-18T00:25:38.330Z,5.60
2022-12-18T00:27:40.199Z,4.50
2022-12-18T00:29:42.023Z,5.28
2022-12-18T00:31:44.406Z,8.07
2022-12-18T00:33:46.673Z,5.32
2022-12-18T00:35:48.535Z,5.03
2022-12-18T00:37:50.431Z,5.55
2022-12-18T00:39:52.363Z,6.47
2022-12-18T00:42:12.657Z,4.95
2022-12-18T00:44:18.154Z,6.47
2022-12-18T00:46:20.120Z,6.15
2022-12-18T00:50:25.611Z,7.60
2022-12-18T00:52:27.489Z,6.75
2022-12-18T00:54:29.497Z,6.68
2022-12-18T00:56:31.353Z,5.70
2022-12-18T00:58:33.230Z,6.70
2022-12-18T01:00:35.725Z,5.90
2022-12-18T01:02:37.806Z,6.20
2022-12-18T01:04:39.742Z,6.63
2022-12-18T01:06:41.780Z,6.40
2022-12-18T01:10:46.571Z,6.88
2022-12-18T01:12:49.189Z,7.55
2022-12-18T01:14:51.239Z,7.50
2022-12-18T01:18:55.904Z,6.20
2022-12-18T01:20:57.861Z,8.75
2022-12-18T01:22:59.835Z,7.70
2022-12-18T01:25:01.775Z,8.93
2022-12-18T01:27:03.698Z,9.20
2022-12-18T01:29:05.579Z,8.27
2022-12-18T01:31:28.798Z,9.50
2022-12-18T01:33:30.693Z,7.25
2022-12-18T01:35:32.847Z,8.75
2022-12-18T01:37:34.716Z,10.05
2022-12-18T01:39:36.545Z,10.98
2022-12-18T01:41:57.788Z,12.27
2022-12-18T01:43:59.651Z,10.40
2022-12-18T01:46:01.532Z,10.48
2022-12-18T01:48:07.836Z,10.65
2022-12-18T01:50:16.984Z,10.73
2022-12-18T01:52:19.814Z,10.15
2022-12-18T01:54:21.728Z,11.77
2022-12-18T01:56:23.808Z,12.88
2022-12-18T02:00:33.451Z,11.45
2022-12-18T02:02:35.735Z,11.35
2022-12-18T02:04:37.716Z,11.98
2022-12-18T02:06:42.450Z,8.75
2022-12-18T02:08:44.237Z,10.25
2022-12-18T02:11:08.336Z,10.88
2022-12-18T02:13:19.271Z,10.07
2022-12-18T02:15:35.312Z,10.07
2022-12-18T02:17:44.311Z,9.70
2022-12-18T02:19:52.045Z,10.77
2022-12-18T02:21:58.241Z,11.98
2022-12-18T02:24:35.751Z,12.73
2022-12-18T02:26:43.538Z,12.68
2022-12-18T02:29:06.866Z,12.30
2022-12-18T02:31:14.772Z,13.48
2022-12-18T02:33:18.371Z,12.98
2022-12-18T02:35:30.000Z,13.65
2022-12-18T02:39:38.598Z,14.48
2022-12-18T02:41:41.048Z,12.32
2022-12-18T02:43:54.330Z,13.45
2022-12-18T02:45:59.242Z,13.75
2022-12-18T02:48:01.186Z,14.48
2022-12-18T02:50:21.835Z,13.30
2022-12-18T02:52:53.100Z,16.80
2022-12-18T02:55:16.349Z,13.57
2022-12-18T02:57:33.380Z,14.38
2022-12-18T02:59:59.386Z,18.88
2022-12-18T03:02:27.949Z,18.58
2022-12-18T03:05:01.988Z,22.15
2022-12-18T03:07:09.011Z,22.23
2022-12-18T03:09:32.790Z,19.40
2022-12-18T03:11:56.174Z,19.23
2022-12-18T03:13:58.933Z,17.75
2022-12-18T03:16:02.466Z,18.25
2022-12-18T03:18:10.057Z,18.55
2022-12-18T03:20:16.018Z,15.55
2022-12-18T03:22:18.651Z,16.00
2022-12-18T03:24:22.220Z,20.05
2022-12-18T03:26:27.937Z,18.17
2022-12-18T03:28:33.149Z,21.05
2022-12-18T03:30:37.557Z,19.10
2022-12-18T03:32:58.796Z,15.90
2022-12-18T03:35:07.701Z,17.40
2022-12-18T03:37:09.669Z,21.70
2022-12-18T03:41:41.386Z,18.08
2022-12-18T03:44:09.995Z,16.55
2022-12-18T03:46:36.825Z,19.90
2022-12-18T03:48:52.739Z,20.85
2022-12-18T03:51:09.080Z,20.00
2022-12-18T03:53:43.711Z,20.25
2022-12-18T03:55:48.488Z,21.20
2022-12-18T03:57:52.247Z,24.55
2022-12-18T04:00:08.105Z,12.38
2022-12-18T04:02:10.685Z,21.65
2022-12-18T04:04:15.343Z,22.65
2022-12-18T04:06:18.312Z,18.77
2022-12-18T04:08:21.728Z,20.70
2022-12-18T04:10:24.016Z,20.88
2022-12-18T04:12:27.285Z,21.67
2022-12-18T04:14:29.150Z,23.50
2022-12-18T04:16:30.989Z,20.85
2022-12-18T04:18:32.832Z,20.77
2022-12-18T04:20:34.672Z,20.80
2022-12-18T04:22:36.579Z,21.77
2022-12-18T04:24:38.602Z,20.45
2022-12-18T04:26:40.649Z,22.92
2022-12-18T04:28:42.764Z,20.70
2022-12-18T04:30:44.717Z,23.40
2022-12-18T04:34:54.227Z,20.15
2022-12-18T04:38:57.952Z,22.70
2022-12-18T04:41:00.127Z,22.75
2022-12-18T04:43:02.041Z,21.60
2022-12-18T04:47:05.880Z,24.33
2022-12-18T04:49:07.908Z,23.77
2022-12-18T04:53:11.555Z,27.27
2022-12-18T04:55:13.413Z,25.15
2022-12-18T04:57:15.418Z,19.95
2022-12-18T05:01:19.701Z,23.10
2022-12-18T05:03:21.656Z,25.67
2022-12-18T05:05:23.648Z,26.85
2022-12-18T05:09:27.427Z,23.80
2022-12-18T05:11:29.347Z,27.33
2022-12-18T05:13:31.683Z,27.35
2022-12-18T05:15:34.905Z,31.10
2022-12-18T05:17:36.913Z,33.45
2022-12-18T05:19:40.128Z,30.58
2022-12-18T05:21:41.957Z,28.65
2022-12-18T05:23:44.607Z,31.98
2022-12-18T05:25:57.861Z,30.13
2022-12-18T05:27:59.751Z,28.95
2022-12-18T05:30:02.013Z,30.80
2022-12-18T05:32:03.958Z,27.95
2022-12-18T05:36:09.463Z,34.00
2022-12-18T05:38:11.526Z,26.75
2022-12-18T05:40:13.782Z,34.17
2022-12-18T05:42:15.746Z,33.83
2022-12-18T05:46:19.697Z,37.55
2022-12-18T05:48:22.322Z,36.42
2022-12-18T05:50:24.162Z,35.67
2022-12-18T05:52:26.056Z,38.85
2022-12-18T05:54:32.098Z,29.58
2022-12-18T05:56:33.976Z,26.63
2022-12-18T05:58:36.066Z,26.55
2022-12-18T06:00:40.964Z,27.10
2022-12-18T08:14:13.471Z,21.30
2022-12-18T08:18:17.160Z,23.33
2022-12-18T08:20:19.397Z,27.27
2022-12-18T08:22:21.375Z,26.02
2022-12-18T08:26:27.141Z,19.52
2022-12-18T08:28:29.010Z,25.70
2022-12-18T08:30:30.922Z,20.58
2022-12-18T08:34:35.919Z,23.70
2022-12-18T08:38:39.719Z,28.65
2022-12-18T08:40:41.606Z,35.00
2022-12-18T08:43:01.853Z,39.38
2022-12-18T08:45:04.746Z,32.70
2022-12-18T08:47:07.580Z,36.60
2022-12-18T08:49:10.487Z,31.13
2022-12-18T08:51:12.641Z,35.17
2022-12-18T08:53:14.524Z,29.65
2022-12-18T08:55:16.410Z,31.48
2022-12-18T08:57:18.443Z,38.13
2022-12-18T08:59:20.788Z,37.40
2022-12-18T09:01:23.420Z,30.60
2022-12-18T09:03:25.389Z,30.90
2022-12-18T09:07:30.382Z,27.60
2022-12-18T09:09:32.514Z,27.40
2022-12-18T09:11:34.857Z,33.55
2022-12-18T09:13:36.937Z,31.83
2022-12-18T09:15:46.638Z,29.60
2022-12-18T09:17:50.880Z,31.77
2022-12-18T09:19:52.718Z,35.28
2022-12-18T09:21:54.676Z,30.90
2022-12-18T09:26:01.744Z,32.40
2022-12-18T09:28:08.198Z,34.25
2022-12-18T09:30:10.655Z,30.42
2022-12-18T09:32:14.373Z,27.95
2022-12-18T09:34:21.991Z,30.88
2022-12-18T09:36:24.399Z,30.77
2022-12-18T09:38:26.272Z,27.42
2022-12-18T09:40:33.041Z,26.23
2022-12-18T09:42:34.950Z,25.70
2022-12-18T09:46:55.236Z,22.35
2022-12-18T09:49:01.491Z,25.55
2022-12-18T09:51:42.772Z,26.27
2022-12-18T09:53:53.579Z,22.83
2022-12-18T09:55:57.297Z,27.48
2022-12-18T09:58:07.479Z,23.10
2022-12-18T10:00:25.412Z,22.40
2022-12-18T10:02:31.225Z,24.88
2022-12-18T10:04:33.722Z,28.35
2022-12-18T10:06:49.660Z,23.35
2022-12-18T10:09:27.144Z,27.27
2022-12-18T10:11:28.942Z,27.90
2022-12-18T10:13:38.892Z,22.55
2022-12-18T10:15:55.723Z,22.70
2022-12-18T10:18:27.654Z,19.05
2022-12-18T10:20:42.802Z,21.52
2022-12-18T10:22:47.169Z,20.15
2022-12-18T10:25:16.442Z,23.92
2022-12-18T10:27:23.004Z,21.45
2022-12-18T10:29:26.532Z,21.27
2022-12-18T10:31:28.668Z,18.13
2022-12-18T10:33:33.088Z,19.67
2022-12-18T10:35:36.562Z,19.75
2022-12-18T10:38:02.986Z,21.27
2022-12-18T10:40:21.949Z,17.20
2022-12-18T10:42:24.572Z,20.33
2022-12-18T10:44:27.301Z,21.83
2022-12-18T10:46:29.291Z,20.83
2022-12-18T10:48:32.347Z,21.80
2022-12-18T10:51:09.899Z,20.95
2022-12-18T10:53:06.380Z,21.77
2022-12-18T10:55:17.440Z,23.00
2022-12-18T10:57:34.096Z,24.27
2022-12-18T10:59:55.730Z,25.23
2022-12-18T11:01:59.199Z,24.27
2022-12-18T11:04:09.124Z,19.27
2022-12-18T11:06:17.387Z,19.52
2022-12-18T11:08:24.329Z,20.00
2022-12-18T11:10:40.160Z,18.20
2022-12-18T11:12:42.041Z,14.90
2022-12-18T11:14:48.377Z,19.98
2022-12-18T11:19:38.302Z,19.90
2022-12-18T11:21:42.562Z,18.10
2022-12-18T11:23:49.364Z,21.23
2022-12-18T11:25:57.792Z,24.08
2022-12-18T11:28:06.048Z,21.70
2022-12-18T11:30:15.430Z,24.10
2022-12-18T11:32:32.658Z,23.58
2022-12-18T11:34:35.117Z,19.98
2022-12-18T11:36:45.126Z,20.90
2022-12-18T11:38:50.436Z,23.55
2022-12-18T11:41:24.213Z,24.48
2022-12-18T11:43:49.318Z,22.17
2022-12-18T11:45:57.082Z,15.90
2022-12-18T11:48:04.835Z,22.95
2022-12-18T11:50:23.315Z,19.52
2022-12-18T11:52:29.854Z,22.25
2022-12-18T11:54:31.717Z,20.98
2022-12-18T11:56:37.393Z,18.55
2022-12-18T11:58:50.853Z,19.33
2022-12-18T12:01:22.658Z,20.60
2022-12-18T14:17:11.641Z,28.02
2022-12-18T14:19:18.617Z,27.75
2022-12-18T14:21:29.137Z,26.80
2022-12-18T14:23:42.568Z,29.30
2022-12-18T14:25:48.160Z,29.70
2022-12-18T14:28:09.849Z,31.00
2022-12-18T14:30:32.464Z,29.05
2022-12-18T14:32:34.330Z,25.08
2022-12-18T14:34:36.128Z,28.40
2022-12-18T14:36:40.925Z,30.83
2022-12-18T14:38:42.796Z,24.05
2022-12-18T14:40:45.041Z,26.02
2022-12-18T14:42:46.983Z,26.92
2022-12-18T14:47:16.830Z,28.42
2022-12-18T14:49:33.874Z,37.42
2022-12-18T14:51:37.232Z,36.83
2022-12-18T14:53:53.956Z,27.60
2022-12-18T14:55:56.638Z,31.80
2022-12-18T14:57:58.830Z,36.60
2022-12-18T15:00:19.738Z,32.45
2022-12-18T15:02:25.731Z,23.90
2022-12-18T15:04:40.597Z,27.58
2022-12-18T15:06:44.899Z,27.10
2022-12-18T15:08:47.956Z,27.10
2022-12-18T15:10:50.035Z,25.73
2022-12-18T15:12:57.748Z,28.98
2022-12-18T15:14:59.750Z,31.35
2022-12-18T15:17:04.456Z,28.33
2022-12-18T15:19:09.047Z,27.90
2022-12-18T15:21:16.044Z,27.70
2022-12-18T15:23:24.024Z,31.60
2022-12-18T15:25:48.789Z,28.67
2022-12-18T15:27:50.697Z,32.35
2022-12-18T15:32:21.281Z,22.23
2022-12-18T15:34:24.047Z,23.15
2022-12-18T15:36:27.025Z,23.48
2022-12-18T15:38:29.173Z,19.98
2022-12-18T15:42:51.353Z,25.85
2022-12-18T15:44:53.236Z,25.55
2022-12-18T15:49:02.801Z,17.98
2022-12-18T15:51:10.337Z,19.65
2022-12-18T15:53:12.289Z,17.45
2022-12-18T15:57:35.246Z,24.10
2022-12-18T15:59:37.180Z,20.92
2022-12-18T16:03:45.292Z,27.83
2022-12-18T16:05:47.584Z,22.58
2022-12-18T16:09:51.275Z,25.10
2022-12-18T16:13:54.969Z,29.77
2022-12-18T16:17:58.801Z,30.90
2022-12-18T16:22:02.649Z,21.63
2022-12-18T16:24:04.841Z,27.92
2022-12-18T16:26:06.675Z,28.05
2022-12-18T16:28:08.533Z,28.90
2022-12-18T16:32:20.929Z,26.70
2022-12-18T16:34:29.456Z,24.00
2022-12-18T16:36:31.598Z,21.08
2022-12-18T16:38:33.456Z,17.20
2022-12-18T16:42:57.003Z,24.80
2022-12-18T16:44:58.890Z,25.90
2022-12-18T16:49:05.716Z,14.43
2022-12-18T16:51:07.640Z,16.00
2022-12-18T16:55:11.492Z,16.20
2022-12-18T16:57:15.112Z,31.00
2022-12-18T16:59:17.242Z,17.08
2022-12-18T17:01:23.774Z,30.50
2022-12-18T17:03:25.896Z,28.08
2022-12-18T17:05:27.802Z,21.20
2022-12-18T17:09:37.349Z,26.95
2022-12-18T17:11:42.662Z,33.75
2022-12-18T17:13:44.543Z,24.85
2022-12-18T17:19:51.250Z,37.38
2022-12-18T17:21:54.333Z,30.85
2022-12-18T17:23:56.420Z,33.00
2022-12-18T17:26:01.426Z,44.10
2022-12-18T17:28:03.351Z,32.17
2022-12-18T17:30:07.013Z,41.55
2022-12-18T17:32:08.923Z,35.13
2022-12-18T17:38:15.402Z,23.60
2022-12-18T17:40:18.446Z,31.88
2022-12-18T17:42:21.651Z,20.25
2022-12-18T17:44:26.741Z,25.77
2022-12-18T17:46:31.833Z,25.88
2022-12-18T17:48:34.173Z,27.10
2022-12-18T17:50:36.545Z,20.30
2022-12-18T17:52:38.396Z,19.48
2022-12-18T17:54:42.161Z,17.50
2022-12-18T17:56:50.229Z,20.88
2022-12-18T17:58:52.137Z,15.73
2022-12-18T20:14:36.763Z,21.25
2022-12-18T20:20:43.322Z,27.30
2022-12-18T20:22:45.276Z,23.10
2022-12-18T20:24:47.274Z,16.35
2022-12-18T20:26:51.588Z,21.55
2022-12-18T20:31:00.943Z,20.60
2022-12-18T20:33:02.889Z,22.05
2022-12-18T20:37:08.362Z,23.00
2022-12-18T20:39:12.296Z,26.63
2022-12-18T20:41:18.675Z,22.90
2022-12-18T20:43:20.536Z,18.83
2022-12-18T20:47:24.374Z,17.77
2022-12-18T20:49:27.124Z,16.42
2022-12-18T20:51:29.288Z,16.50
2022-12-18T20:53:31.971Z,18.23
2022-12-18T20:55:33.817Z,21.90
2022-12-18T20:57:35.739Z,20.95
2022-12-18T20:59:46.241Z,16.15
2022-12-18T21:01:50.243Z,19.05
2022-12-18T21:03:52.893Z,15.07
2022-12-18T21:05:54.731Z,13.98
2022-12-18T21:07:56.537Z,14.00
2022-12-18T21:09:58.408Z,16.58
2022-12-18T21:12:18.705Z,14.43
2022-12-18T21:14:23.277Z,14.50
2022-12-18T21:16:25.333Z,13.80
2022-12-18T21:18:28.058Z,19.83
2022-12-18T21:22:31.772Z,15.68
2022-12-18T21:26:39.193Z,13.98
2022-12-18T21:28:45.514Z,14.82
2022-12-18T21:32:49.258Z,18.83
2022-12-18T21:34:52.039Z,18.48
2022-12-18T21:36:55.876Z,15.23
2022-12-18T21:38:59.107Z,15.85
2022-12-18T21:41:05.763Z,21.88
2022-12-18T21:43:28.212Z,25.15
2022-12-18T21:47:31.975Z,13.05
2022-12-18T21:51:36.705Z,18.73
2022-12-18T21:53:38.784Z,16.73
2022-12-18T21:55:40.678Z,23.88
2022-12-18T21:59:44.550Z,14.38
2022-12-18T22:01:48.179Z,11.68
2022-12-18T22:03:50.117Z,10.02
2022-12-18T22:08:11.655Z,12.27
2022-12-18T22:10:14.046Z,10.90
2022-12-18T22:12:35.508Z,13.32
2022-12-18T22:14:38.291Z,10.10
2022-12-18T22:16:40.194Z,10.95
2022-12-18T22:18:43.092Z,9.38
2022-12-18T22:20:49.196Z,9.55
2022-12-18T22:22:52.520Z,8.80
2022-12-18T22:24:54.502Z,9.23
2022-12-18T22:29:23.448Z,12.48
2022-12-18T22:31:25.383Z,17.92
2022-12-18T22:33:27.717Z,13.05
2022-12-18T22:35:29.585Z,12.63
2022-12-18T22:37:31.502Z,13.60
2022-12-18T22:41:35.773Z,15.15
2022-12-18T22:43:38.108Z,18.23
2022-12-18T22:45:40.042Z,25.00
2022-12-18T22:47:42.563Z,23.42
2022-12-18T22:49:44.515Z,26.42
2022-12-18T22:53:55.911Z,23.13
2022-12-18T22:56:02.413Z,24.98
2022-12-18T22:58:04.462Z,25.38
2022-12-18T23:00:08.579Z,23.58
2022-12-18T23:02:10.555Z,21.48
2022-12-18T23:04:13.269Z,27.38
2022-12-18T23:06:15.445Z,24.55
2022-12-18T23:08:17.453Z,32.05
2022-12-18T23:10:19.412Z,26.92
2022-12-18T23:14:23.454Z,14.98
2022-12-18T23:18:27.190Z,23.90
2022-12-18T23:22:30.956Z,40.75
2022-12-18T23:26:35.040Z,27.23
2022-12-18T23:28:37.989Z,28.38
2022-12-18T23:30:39.852Z,24.08
2022-12-18T23:34:43.829Z,30.10
2022-12-18T23:36:46.949Z,19.65
2022-12-18T23:38:51.646Z,31.42
2022-12-18T23:40:53.488Z,23.08
2022-12-18T23:43:00.186Z,18.42
2022-12-18T23:45:05.238Z,17.40
2022-12-18T23:47:19.321Z,18.38
2022-12-18T23:49:21.279Z,15.18
2022-12-18T23:53:26.869Z,10.25
2022-12-18T23:57:30.448Z,8.27
2022-12-18T23:59:32.398Z,12.02
